sensor_id;sensor_type;location;lat;lon;timestamp;P1;durP1;ratioP1;P2;durP2;ratioP2
25731;SDS011;13585;50.864;4.406;2023-04-01T00:02:17;2.72;;;1.42;;
25731;SDS011;13585;50.864;4.406;2023-04-01T00:04:43;3.10;;;1.27;;
25731;SDS011;13585;50.864;4.406;2023-04-01T00:07:10;2.53;;;0.90;;
25731;SDS011;13585;50.864;4.406;2023-04-01T00:09:36;3.78;;;1.50;;
25731;SDS011;13585;50.864;4.406;2023-04-01T00:12:02;3.55;;;1.23;;
25731;SDS011;13585;50.864;4.406;2023-04-01T00:14:28;3.70;;;1.35;;
25731;SDS011;13585;50.864;4.406;2023-04-01T00:16:54;4.72;;;1.52;;
25731;SDS011;13585;50.864;4.406;2023-04-01T00:19:20;4.50;;;1.10;;
25731;SDS011;13585;50.864;4.406;2023-04-01T00:21:46;3.92;;;1.27;;
25731;SDS011;13585;50.864;4.406;2023-04-01T00:24:13;3.50;;;1.40;;
25731;SDS011;13585;50.864;4.406;2023-04-01T00:26:38;3.80;;;1.25;;
25731;SDS011;13585;50.864;4.406;2023-04-01T00:29:05;3.58;;;1.45;;
25731;SDS011;13585;50.864;4.406;2023-04-01T00:31:31;4.80;;;1.63;;
25731;SDS011;13585;50.864;4.406;2023-04-01T00:33:57;2.67;;;1.20;;
25731;SDS011;13585;50.864;4.406;2023-04-01T00:36:23;4.38;;;1.27;;
25731;SDS011;13585;50.864;4.406;2023-04-01T00:38:48;4.22;;;1.38;;
25731;SDS011;13585;50.864;4.406;2023-04-01T00:41:15;3.25;;;1.20;;
25731;SDS011;13585;50.864;4.406;2023-04-01T00:43:45;2.00;;;1.35;;
25731;SDS011;13585;50.864;4.406;2023-04-01T00:46:12;4.80;;;1.77;;
25731;SDS011;13585;50.864;4.406;2023-04-01T00:48:39;3.08;;;1.35;;
25731;SDS011;13585;50.864;4.406;2023-04-01T00:53:41;7.50;;;1.40;;
25731;SDS011;13585;50.864;4.406;2023-04-01T00:56:43;5.30;;;1.83;;
25731;SDS011;13585;50.864;4.406;2023-04-01T00:59:06;4.13;;;1.08;;
25731;SDS011;13585;50.864;4.406;2023-04-01T01:01:38;4.22;;;1.23;;
25731;SDS011;13585;50.864;4.406;2023-04-01T01:04:03;3.53;;;1.20;;
25731;SDS011;13585;50.864;4.406;2023-04-01T01:12:07;3.00;;;1.20;;
25731;SDS011;13585;50.864;4.406;2023-04-01T01:14:49;3.60;;;1.23;;
25731;SDS011;13585;50.864;4.406;2023-04-01T01:30:49;3.28;;;1.10;;
25731;SDS011;13585;50.864;4.406;2023-04-01T01:35:51;3.40;;;1.30;;
25731;SDS011;13585;50.864;4.406;2023-04-01T01:38:24;1.88;;;0.90;;
25731;SDS011;13585;50.864;4.406;2023-04-01T01:40:53;2.10;;;1.13;;
25731;SDS011;13585;50.864;4.406;2023-04-01T01:43:24;2.60;;;1.10;;
25731;SDS011;13585;50.864;4.406;2023-04-01T01:45:54;3.03;;;1.05;;
25731;SDS011;13585;50.864;4.406;2023-04-01T01:48:23;3.35;;;1.50;;
25731;SDS011;13585;50.864;4.406;2023-04-01T01:50:51;2.17;;;1.15;;
25731;SDS011;13585;50.864;4.406;2023-04-01T01:53:17;2.20;;;1.05;;
25731;SDS011;13585;50.864;4.406;2023-04-01T01:55:44;2.40;;;1.00;;
25731;SDS011;13585;50.864;4.406;2023-04-01T02:00:41;1.42;;;0.85;;
25731;SDS011;13585;50.864;4.406;2023-04-01T02:03:10;3.88;;;1.10;;
25731;SDS011;13585;50.864;4.406;2023-04-01T02:05:38;2.17;;;1.00;;
25731;SDS011;13585;50.864;4.406;2023-04-01T02:08:10;2.33;;;1.10;;
25731;SDS011;13585;50.864;4.406;2023-04-01T02:10:41;2.10;;;0.90;;
25731;SDS011;13585;50.864;4.406;2023-04-01T02:13:18;2.80;;;1.02;;
25731;SDS011;13585;50.864;4.406;2023-04-01T02:15:51;3.17;;;0.82;;
25731;SDS011;13585;50.864;4.406;2023-04-01T02:18:22;1.92;;;1.10;;
25731;SDS011;13585;50.864;4.406;2023-04-01T02:20:47;1.98;;;1.08;;
25731;SDS011;13585;50.864;4.406;2023-04-01T02:23:14;1.67;;;0.80;;
25731;SDS011;13585;50.864;4.406;2023-04-01T02:25:40;1.42;;;0.80;;
25731;SDS011;13585;50.864;4.406;2023-04-01T02:28:08;1.63;;;0.80;;
25731;SDS011;13585;50.864;4.406;2023-04-01T02:30:36;2.63;;;1.00;;
25731;SDS011;13585;50.864;4.406;2023-04-01T02:33:05;1.92;;;1.00;;
25731;SDS011;13585;50.864;4.406;2023-04-01T02:35:32;2.40;;;0.90;;
25731;SDS011;13585;50.864;4.406;2023-04-01T02:38:01;1.63;;;0.90;;
25731;SDS011;13585;50.864;4.406;2023-04-01T02:40:27;2.58;;;0.93;;
25731;SDS011;13585;50.864;4.406;2023-04-01T02:42:53;2.90;;;0.90;;
25731;SDS011;13585;50.864;4.406;2023-04-01T02:45:19;2.17;;;1.08;;
25731;SDS011;13585;50.864;4.406;2023-04-01T02:47:44;1.88;;;1.00;;
25731;SDS011;13585;50.864;4.406;2023-04-01T02:50:10;1.45;;;0.90;;
25731;SDS011;13585;50.864;4.406;2023-04-01T02:52:36;2.45;;;0.75;;
25731;SDS011;13585;50.864;4.406;2023-04-01T02:55:02;2.42;;;0.82;;
25731;SDS011;13585;50.864;4.406;2023-04-01T02:57:28;3.45;;;1.10;;
25731;SDS011;13585;50.864;4.406;2023-04-01T02:59:54;2.30;;;0.88;;
25731;SDS011;13585;50.864;4.406;2023-04-01T03:02:19;1.73;;;0.93;;
25731;SDS011;13585;50.864;4.406;2023-04-01T03:04:45;1.27;;;0.82;;
25731;SDS011;13585;50.864;4.406;2023-04-01T03:07:11;2.28;;;0.82;;
25731;SDS011;13585;50.864;4.406;2023-04-01T03:09:37;2.05;;;0.70;;
25731;SDS011;13585;50.864;4.406;2023-04-01T03:12:03;2.63;;;1.05;;
25731;SDS011;13585;50.864;4.406;2023-04-01T03:14:29;1.33;;;0.80;;
25731;SDS011;13585;50.864;4.406;2023-04-01T03:16:54;2.15;;;1.02;;
25731;SDS011;13585;50.864;4.406;2023-04-01T03:19:20;1.42;;;0.80;;
25731;SDS011;13585;50.864;4.406;2023-04-01T03:21:45;1.33;;;0.77;;
25731;SDS011;13585;50.864;4.406;2023-04-01T03:24:11;2.03;;;1.00;;
25731;SDS011;13585;50.864;4.406;2023-04-01T03:26:36;1.58;;;0.77;;
25731;SDS011;13585;50.864;4.406;2023-04-01T03:29:02;1.08;;;0.70;;
25731;SDS011;13585;50.864;4.406;2023-04-01T03:31:28;3.20;;;0.90;;
25731;SDS011;13585;50.864;4.406;2023-04-01T03:33:53;2.72;;;0.82;;
25731;SDS011;13585;50.864;4.406;2023-04-01T03:36:19;1.70;;;1.05;;
25731;SDS011;13585;50.864;4.406;2023-04-01T03:38:45;2.05;;;1.00;;
25731;SDS011;13585;50.864;4.406;2023-04-01T03:41:14;3.55;;;0.90;;
25731;SDS011;13585;50.864;4.406;2023-04-01T03:43:41;1.40;;;0.68;;
25731;SDS011;13585;50.864;4.406;2023-04-01T03:46:08;2.35;;;0.90;;
25731;SDS011;13585;50.864;4.406;2023-04-01T03:48:34;2.15;;;0.85;;
25731;SDS011;13585;50.864;4.406;2023-04-01T03:50:59;1.48;;;0.70;;
25731;SDS011;13585;50.864;4.406;2023-04-01T03:53:25;3.50;;;0.93;;
25731;SDS011;13585;50.864;4.406;2023-04-01T03:55:52;2.45;;;0.80;;
25731;SDS011;13585;50.864;4.406;2023-04-01T03:58:18;1.75;;;0.90;;
25731;SDS011;13585;50.864;4.406;2023-04-01T04:00:44;1.88;;;1.00;;
25731;SDS011;13585;50.864;4.406;2023-04-01T04:03:10;2.38;;;1.00;;
25731;SDS011;13585;50.864;4.406;2023-04-01T04:05:35;1.58;;;0.90;;
25731;SDS011;13585;50.864;4.406;2023-04-01T04:08:01;1.65;;;0.80;;
25731;SDS011;13585;50.864;4.406;2023-04-01T04:10:27;1.65;;;0.65;;
25731;SDS011;13585;50.864;4.406;2023-04-01T04:12:54;2.13;;;0.80;;
25731;SDS011;13585;50.864;4.406;2023-04-01T04:15:20;1.08;;;0.68;;
25731;SDS011;13585;50.864;4.406;2023-04-01T04:17:45;1.77;;;0.85;;
25731;SDS011;13585;50.864;4.406;2023-04-01T04:20:11;2.75;;;0.80;;
25731;SDS011;13585;50.864;4.406;2023-04-01T04:22:37;2.15;;;1.10;;
25731;SDS011;13585;50.864;4.406;2023-04-01T04:25:03;2.17;;;1.10;;
25731;SDS011;13585;50.864;4.406;2023-04-01T04:27:29;1.65;;;0.82;;
25731;SDS011;13585;50.864;4.406;2023-04-01T04:29:55;2.00;;;0.90;;
25731;SDS011;13585;50.864;4.406;2023-04-01T04:32:20;2.03;;;0.80;;
25731;SDS011;13585;50.864;4.406;2023-04-01T04:34:46;1.67;;;0.80;;
25731;SDS011;13585;50.864;4.406;2023-04-01T04:37:11;2.83;;;1.05;;
25731;SDS011;13585;50.864;4.406;2023-04-01T04:39:37;1.70;;;0.90;;
25731;SDS011;13585;50.864;4.406;2023-04-01T04:42:02;2.15;;;0.90;;
25731;SDS011;13585;50.864;4.406;2023-04-01T04:44:28;2.47;;;1.00;;
25731;SDS011;13585;50.864;4.406;2023-04-01T04:46:54;1.77;;;0.80;;
25731;SDS011;13585;50.864;4.406;2023-04-01T04:49:20;1.35;;;0.90;;
25731;SDS011;13585;50.864;4.406;2023-04-01T04:51:45;2.65;;;0.75;;
25731;SDS011;13585;50.864;4.406;2023-04-01T04:54:11;2.13;;;0.80;;
25731;SDS011;13585;50.864;4.406;2023-04-01T04:56:36;1.20;;;0.77;;
25731;SDS011;13585;50.864;4.406;2023-04-01T04:59:02;1.65;;;0.80;;
25731;SDS011;13585;50.864;4.406;2023-04-01T05:01:28;1.42;;;0.73;;
25731;SDS011;13585;50.864;4.406;2023-04-01T05:03:53;2.00;;;0.90;;
25731;SDS011;13585;50.864;4.406;2023-04-01T05:06:19;2.35;;;0.90;;
25731;SDS011;13585;50.864;4.406;2023-04-01T05:08:45;1.42;;;0.80;;
25731;SDS011;13585;50.864;4.406;2023-04-01T05:11:12;1.15;;;0.88;;
25731;SDS011;13585;50.864;4.406;2023-04-01T05:13:39;2.17;;;0.70;;
25731;SDS011;13585;50.864;4.406;2023-04-01T05:16:11;1.88;;;0.95;;
25731;SDS011;13585;50.864;4.406;2023-04-01T05:18:38;1.13;;;0.70;;
25731;SDS011;13585;50.864;4.406;2023-04-01T05:21:04;2.00;;;0.98;;
25731;SDS011;13585;50.864;4.406;2023-04-01T05:23:31;1.35;;;0.68;;
25731;SDS011;13585;50.864;4.406;2023-04-01T05:25:58;1.33;;;0.70;;
25731;SDS011;13585;50.864;4.406;2023-04-01T05:28:24;2.28;;;0.90;;
25731;SDS011;13585;50.864;4.406;2023-04-01T05:30:49;2.63;;;0.90;;
25731;SDS011;13585;50.864;4.406;2023-04-01T05:33:22;2.65;;;0.60;;
25731;SDS011;13585;50.864;4.406;2023-04-01T05:35:54;0.98;;;0.60;;
25731;SDS011;13585;50.864;4.406;2023-04-01T05:38:20;1.35;;;0.63;;
25731;SDS011;13585;50.864;4.406;2023-04-01T05:40:46;1.52;;;0.70;;
25731;SDS011;13585;50.864;4.406;2023-04-01T05:43:12;0.90;;;0.60;;
25731;SDS011;13585;50.864;4.406;2023-04-01T05:45:37;1.25;;;0.73;;
25731;SDS011;13585;50.864;4.406;2023-04-01T05:48:03;2.50;;;0.70;;
25731;SDS011;13585;50.864;4.406;2023-04-01T05:50:29;0.52;;;0.50;;
25731;SDS011;13585;50.864;4.406;2023-04-01T05:52:54;1.20;;;0.70;;
25731;SDS011;13585;50.864;4.406;2023-04-01T05:55:20;1.60;;;0.80;;
25731;SDS011;13585;50.864;4.406;2023-04-01T05:57:46;1.13;;;0.60;;
25731;SDS011;13585;50.864;4.406;2023-04-01T06:00:14;1.27;;;0.77;;
25731;SDS011;13585;50.864;4.406;2023-04-01T06:02:40;1.10;;;0.70;;
25731;SDS011;13585;50.864;4.406;2023-04-01T06:05:12;0.85;;;0.68;;
25731;SDS011;13585;50.864;4.406;2023-04-01T06:07:39;1.50;;;0.50;;
25731;SDS011;13585;50.864;4.406;2023-04-01T06:29:34;0.90;;;0.60;;
25731;SDS011;13585;50.864;4.406;2023-04-01T06:32:15;1.05;;;0.70;;
25731;SDS011;13585;50.864;4.406;2023-04-01T06:40:38;1.45;;;0.70;;
25731;SDS011;13585;50.864;4.406;2023-04-01T06:54:25;1.13;;;0.60;;
25731;SDS011;13585;50.864;4.406;2023-04-01T06:57:02;1.48;;;0.70;;
25731;SDS011;13585;50.864;4.406;2023-04-01T06:59:47;1.55;;;0.80;;
25731;SDS011;13585;50.864;4.406;2023-04-01T07:02:29;1.52;;;0.70;;
25731;SDS011;13585;50.864;4.406;2023-04-01T07:05:20;1.33;;;0.70;;
25731;SDS011;13585;50.864;4.406;2023-04-01T07:07:48;1.63;;;0.73;;
25731;SDS011;13585;50.864;4.406;2023-04-01T07:13:15;1.30;;;0.70;;
25731;SDS011;13585;50.864;4.406;2023-04-01T07:15:51;0.90;;;0.60;;
25731;SDS011;13585;50.864;4.406;2023-04-01T07:18:29;1.25;;;0.70;;
25731;SDS011;13585;50.864;4.406;2023-04-01T07:23:56;1.88;;;0.80;;
25731;SDS011;13585;50.864;4.406;2023-04-01T07:26:26;1.85;;;0.90;;
25731;SDS011;13585;50.864;4.406;2023-04-01T07:28:52;1.83;;;0.88;;
25731;SDS011;13585;50.864;4.406;2023-04-01T07:34:29;1.45;;;0.50;;
25731;SDS011;13585;50.864;4.406;2023-04-01T07:39:44;0.98;;;0.80;;
25731;SDS011;13585;50.864;4.406;2023-04-01T07:51:21;1.42;;;0.70;;
25731;SDS011;13585;50.864;4.406;2023-04-01T07:54:09;1.25;;;0.70;;
25731;SDS011;13585;50.864;4.406;2023-04-01T07:59:39;0.73;;;0.43;;
25731;SDS011;13585;50.864;4.406;2023-04-01T08:10:39;0.40;;;0.40;;
25731;SDS011;13585;50.864;4.406;2023-04-01T08:13:10;0.93;;;0.55;;
25731;SDS011;13585;50.864;4.406;2023-04-01T08:16:16;1.63;;;0.65;;
25731;SDS011;13585;50.864;4.406;2023-04-01T08:22:09;1.77;;;0.80;;
25731;SDS011;13585;50.864;4.406;2023-04-01T08:24:43;1.20;;;0.70;;
25731;SDS011;13585;50.864;4.406;2023-04-01T08:27:34;0.55;;;0.50;;
25731;SDS011;13585;50.864;4.406;2023-04-01T08:30:24;1.38;;;0.60;;
25731;SDS011;13585;50.864;4.406;2023-04-01T08:38:31;0.60;;;0.60;;
25731;SDS011;13585;50.864;4.406;2023-04-01T08:41:11;1.20;;;0.65;;
25731;SDS011;13585;50.864;4.406;2023-04-01T08:44:04;1.83;;;0.60;;
25731;SDS011;13585;50.864;4.406;2023-04-01T09:35:21;1.27;;;0.50;;
25731;SDS011;13585;50.864;4.406;2023-04-01T09:40:54;1.50;;;0.57;;
25731;SDS011;13585;50.864;4.406;2023-04-01T09:49:50;0.98;;;0.50;;
25731;SDS011;13585;50.864;4.406;2023-04-01T10:24:50;0.88;;;0.50;;
25731;SDS011;13585;50.864;4.406;2023-04-01T10:35:38;1.27;;;0.45;;
25731;SDS011;13585;50.864;4.406;2023-04-01T10:47:01;2.30;;;0.50;;
25731;SDS011;13585;50.864;4.406;2023-04-01T11:28:27;29.42;;;19.88;;
25731;SDS011;13585;50.864;4.406;2023-04-01T11:36:51;26.63;;;17.95;;
25731;SDS011;13585;50.864;4.406;2023-04-01T11:42:20;25.88;;;17.13;;
25731;SDS011;13585;50.864;4.406;2023-04-01T11:45:11;22.08;;;14.70;;
25731;SDS011;13585;50.864;4.406;2023-04-01T11:53:37;22.50;;;12.95;;
25731;SDS011;13585;50.864;4.406;2023-04-01T12:01:54;18.48;;;12.45;;
25731;SDS011;13585;50.864;4.406;2023-04-01T12:12:52;17.02;;;10.70;;
25731;SDS011;13585;50.864;4.406;2023-04-01T12:21:09;29.55;;;15.95;;
25731;SDS011;13585;50.864;4.406;2023-04-01T12:34:48;17.55;;;11.05;;
25731;SDS011;13585;50.864;4.406;2023-04-01T12:37:21;15.52;;;10.05;;
25731;SDS011;13585;50.864;4.406;2023-04-01T12:39:57;16.35;;;9.75;;
25731;SDS011;13585;50.864;4.406;2023-04-01T12:45:31;14.55;;;9.40;;
25731;SDS011;13585;50.864;4.406;2023-04-01T12:51:29;13.98;;;9.25;;
25731;SDS011;13585;50.864;4.406;2023-04-01T12:54:15;17.65;;;9.07;;
25731;SDS011;13585;50.864;4.406;2023-04-01T12:57:23;14.90;;;8.43;;
25731;SDS011;13585;50.864;4.406;2023-04-01T13:00:25;13.85;;;8.00;;
25731;SDS011;13585;50.864;4.406;2023-04-01T13:03:40;13.90;;;7.97;;
25731;SDS011;13585;50.864;4.406;2023-04-01T13:18:10;10.48;;;6.55;;
25731;SDS011;13585;50.864;4.406;2023-04-01T13:21:16;11.65;;;7.20;;
25731;SDS011;13585;50.864;4.406;2023-04-01T13:24:12;12.57;;;6.68;;
25731;SDS011;13585;50.864;4.406;2023-04-01T13:32:30;11.75;;;5.72;;
25731;SDS011;13585;50.864;4.406;2023-04-01T13:43:16;8.93;;;5.55;;
25731;SDS011;13585;50.864;4.406;2023-04-01T13:48:54;9.73;;;5.30;;
25731;SDS011;13585;50.864;4.406;2023-04-01T13:52:00;9.27;;;5.18;;
25731;SDS011;13585;50.864;4.406;2023-04-01T14:00:31;7.00;;;4.50;;
25731;SDS011;13585;50.864;4.406;2023-04-01T14:22:25;5.78;;;3.40;;
25731;SDS011;13585;50.864;4.406;2023-04-01T14:28:13;6.28;;;3.15;;
25731;SDS011;13585;50.864;4.406;2023-04-01T14:30:54;5.75;;;3.40;;
25731;SDS011;13585;50.864;4.406;2023-04-01T14:41:48;5.18;;;2.97;;
25731;SDS011;13585;50.864;4.406;2023-04-01T14:50:20;5.30;;;2.83;;
25731;SDS011;13585;50.864;4.406;2023-04-01T14:55:27;5.00;;;3.22;;
25731;SDS011;13585;50.864;4.406;2023-04-01T14:58:04;3.53;;;2.70;;
25731;SDS011;13585;50.864;4.406;2023-04-01T15:03:30;5.32;;;3.20;;
25731;SDS011;13585;50.864;4.406;2023-04-01T15:28:39;4.40;;;2.45;;
25731;SDS011;13585;50.864;4.406;2023-04-01T15:33:59;5.10;;;2.65;;
25731;SDS011;13585;50.864;4.406;2023-04-01T15:39:39;4.75;;;2.40;;
25731;SDS011;13585;50.864;4.406;2023-04-01T15:42:30;4.05;;;2.28;;
25731;SDS011;13585;50.864;4.406;2023-04-01T15:50:44;3.65;;;2.20;;
25731;SDS011;13585;50.864;4.406;2023-04-01T15:53:47;3.58;;;2.53;;
25731;SDS011;13585;50.864;4.406;2023-04-01T15:59:23;3.78;;;1.90;;
25731;SDS011;13585;50.864;4.406;2023-04-01T16:01:58;4.07;;;2.35;;
25731;SDS011;13585;50.864;4.406;2023-04-01T16:13:19;2.97;;;2.08;;
25731;SDS011;13585;50.864;4.406;2023-04-01T16:16:14;3.58;;;2.25;;
25731;SDS011;13585;50.864;4.406;2023-04-01T16:19:10;2.57;;;2.10;;
25731;SDS011;13585;50.864;4.406;2023-04-01T16:25:02;3.20;;;2.20;;
25731;SDS011;13585;50.864;4.406;2023-04-01T16:33:00;3.75;;;2.00;;
25731;SDS011;13585;50.864;4.406;2023-04-01T16:35:42;3.28;;;1.70;;
25731;SDS011;13585;50.864;4.406;2023-04-01T16:38:12;4.07;;;1.98;;
25731;SDS011;13585;50.864;4.406;2023-04-01T16:48:59;2.60;;;1.80;;
25731;SDS011;13585;50.864;4.406;2023-04-01T16:54:18;3.92;;;1.73;;
25731;SDS011;13585;50.864;4.406;2023-04-01T16:56:55;2.88;;;1.70;;
25731;SDS011;13585;50.864;4.406;2023-04-01T16:59:37;2.30;;;1.58;;
25731;SDS011;13585;50.864;4.406;2023-04-01T17:02:12;2.35;;;1.70;;
25731;SDS011;13585;50.864;4.406;2023-04-01T17:18:10;5.28;;;2.97;;
25731;SDS011;13585;50.864;4.406;2023-04-01T17:20:59;3.58;;;2.45;;
25731;SDS011;13585;50.864;4.406;2023-04-01T17:23:38;5.32;;;3.47;;
25731;SDS011;13585;50.864;4.406;2023-04-01T17:31:53;4.15;;;2.60;;
25731;SDS011;13585;50.864;4.406;2023-04-01T17:34:45;4.22;;;2.22;;
25731;SDS011;13585;50.864;4.406;2023-04-01T17:43:17;3.55;;;2.35;;
25731;SDS011;13585;50.864;4.406;2023-04-01T17:56:10;4.10;;;2.38;;
25731;SDS011;13585;50.864;4.406;2023-04-01T17:58:48;6.22;;;2.30;;
25731;SDS011;13585;50.864;4.406;2023-04-01T18:01:30;3.63;;;2.33;;
25731;SDS011;13585;50.864;4.406;2023-04-01T18:04:08;3.50;;;2.05;;
25731;SDS011;13585;50.864;4.406;2023-04-01T18:07:14;3.95;;;2.38;;
25731;SDS011;13585;50.864;4.406;2023-04-01T18:15:44;4.65;;;2.03;;
25731;SDS011;13585;50.864;4.406;2023-04-01T18:18:23;4.10;;;2.35;;
25731;SDS011;13585;50.864;4.406;2023-04-01T18:21:04;3.95;;;2.13;;
25731;SDS011;13585;50.864;4.406;2023-04-01T18:26:42;5.57;;;2.10;;
25731;SDS011;13585;50.864;4.406;2023-04-01T18:29:13;4.03;;;2.08;;
25731;SDS011;13585;50.864;4.406;2023-04-01T18:31:49;3.28;;;2.08;;
25731;SDS011;13585;50.864;4.406;2023-04-01T18:37:34;3.15;;;1.98;;
25731;SDS011;13585;50.864;4.406;2023-04-01T18:42:58;5.00;;;1.80;;
25731;SDS011;13585;50.864;4.406;2023-04-01T18:45:57;2.42;;;1.63;;
25731;SDS011;13585;50.864;4.406;2023-04-01T18:48:37;2.45;;;1.50;;
25731;SDS011;13585;50.864;4.406;2023-04-01T18:53:59;2.67;;;1.63;;
25731;SDS011;13585;50.864;4.406;2023-04-01T18:56:34;4.63;;;2.22;;
25731;SDS011;13585;50.864;4.406;2023-04-01T19:01:37;5.55;;;2.65;;
25731;SDS011;13585;50.864;4.406;2023-04-01T19:04:26;3.53;;;2.30;;
25731;SDS011;13585;50.864;4.406;2023-04-01T19:21:55;3.50;;;1.80;;
25731;SDS011;13585;50.864;4.406;2023-04-01T19:24:48;2.90;;;1.50;;
25731;SDS011;13585;50.864;4.406;2023-04-01T19:27:35;3.20;;;1.88;;
25731;SDS011;13585;50.864;4.406;2023-04-01T19:38:59;3.25;;;1.80;;
25731;SDS011;13585;50.864;4.406;2023-04-01T19:41:45;3.35;;;1.90;;
25731;SDS011;13585;50.864;4.406;2023-04-01T19:44:37;3.00;;;1.65;;
25731;SDS011;13585;50.864;4.406;2023-04-01T19:47:16;2.58;;;1.50;;
25731;SDS011;13585;50.864;4.406;2023-04-01T19:50:27;2.97;;;1.70;;
25731;SDS011;13585;50.864;4.406;2023-04-01T19:53:15;2.10;;;1.70;;
25731;SDS011;13585;50.864;4.406;2023-04-01T19:58:16;3.30;;;1.90;;
25731;SDS011;13585;50.864;4.406;2023-04-01T20:01:03;2.13;;;1.67;;
25731;SDS011;13585;50.864;4.406;2023-04-01T20:03:34;4.25;;;1.83;;
25731;SDS011;13585;50.864;4.406;2023-04-01T20:25:13;2.90;;;1.70;;
25731;SDS011;13585;50.864;4.406;2023-04-01T20:27:54;1.98;;;1.63;;
25731;SDS011;13585;50.864;4.406;2023-04-01T20:43:52;3.80;;;1.98;;
25731;SDS011;13585;50.864;4.406;2023-04-01T21:00:54;3.50;;;1.75;;
25731;SDS011;13585;50.864;4.406;2023-04-01T21:03:49;2.97;;;1.50;;
25731;SDS011;13585;50.864;4.406;2023-04-01T21:18:21;2.65;;;1.50;;
25731;SDS011;13585;50.864;4.406;2023-04-01T21:26:43;2.40;;;1.73;;
25731;SDS011;13585;50.864;4.406;2023-04-01T21:32:26;2.63;;;1.50;;
25731;SDS011;13585;50.864;4.406;2023-04-01T21:35:41;1.88;;;1.40;;
25731;SDS011;13585;50.864;4.406;2023-04-01T21:41:24;2.58;;;1.55;;
25731;SDS011;13585;50.864;4.406;2023-04-01T21:44:09;2.47;;;1.52;;
25731;SDS011;13585;50.864;4.406;2023-04-01T21:53:12;1.92;;;1.48;;
25731;SDS011;13585;50.864;4.406;2023-04-01T21:56:03;2.38;;;1.67;;
25731;SDS011;13585;50.864;4.406;2023-04-01T22:04:40;2.20;;;1.67;;
25731;SDS011;13585;50.864;4.406;2023-04-01T22:07:20;3.13;;;1.85;;
25731;SDS011;13585;50.864;4.406;2023-04-01T22:23:55;2.10;;;1.90;;
25731;SDS011;13585;50.864;4.406;2023-04-01T22:26:27;3.88;;;1.90;;
25731;SDS011;13585;50.864;4.406;2023-04-01T22:29:29;2.83;;;1.83;;
25731;SDS011;13585;50.864;4.406;2023-04-01T22:32:06;3.83;;;1.92;;
25731;SDS011;13585;50.864;4.406;2023-04-01T22:34:40;2.92;;;1.80;;
25731;SDS011;13585;50.864;4.406;2023-04-01T22:42:44;3.30;;;2.20;;
25731;SDS011;13585;50.864;4.406;2023-04-01T22:48:42;2.28;;;1.80;;
25731;SDS011;13585;50.864;4.406;2023-04-01T22:56:39;2.83;;;1.88;;
25731;SDS011;13585;50.864;4.406;2023-04-01T22:59:13;2.50;;;1.98;;
25731;SDS011;13585;50.864;4.406;2023-04-01T23:01:48;2.22;;;2.00;;
25731;SDS011;13585;50.864;4.406;2023-04-01T23:04:22;3.15;;;2.30;;
25731;SDS011;13585;50.864;4.406;2023-04-01T23:06:55;3.55;;;2.10;;
25731;SDS011;13585;50.864;4.406;2023-04-01T23:16:48;3.22;;;2.10;;
25731;SDS011;13585;50.864;4.406;2023-04-01T23:22:32;2.75;;;2.00;;
25731;SDS011;13585;50.864;4.406;2023-04-01T23:25:24;2.22;;;1.92;;
25731;SDS011;13585;50.864;4.406;2023-04-01T23:38:22;3.13;;;2.40;;
25731;SDS011;13585;50.864;4.406;2023-04-01T23:40:50;2.40;;;2.10;;
25731;SDS011;13585;50.864;4.406;2023-04-01T23:43:28;4.50;;;2.67;;
25731;SDS011;13585;50.864;4.406;2023-04-01T23:45:56;2.65;;;2.08;;
25731;SDS011;13585;50.864;4.406;2023-04-01T23:48:30;5.55;;;2.60;;
25731;SDS011;13585;50.864;4.406;2023-04-01T23:50:58;3.45;;;2.90;;
25731;SDS011;13585;50.864;4.406;2023-04-01T23:53:24;3.05;;;2.15;;
25731;SDS011;13585;50.864;4.406;2023-04-01T23:55:54;2.63;;;2.33;;
25731;SDS011;13585;50.864;4.406;2023-04-01T23:58:24;3.13;;;2.55;;
